Terminal Aerodrome Forecast
Issued by NWS Los Angeles, CA

Home | Current Version | Previous Version | Text Only | Print | Product List | Glossary On
Versions: 1 2 3 4 5 6 7 8 9 10 11 12 13 14 15 16 17 18 19 20
000
FTUS46 KLOX 281600 AAA
TAFSMX
TAF AMD
KSMX 281642Z 2817/0112 17005KT P6SM SCT040 BKN050
      TEMPO 2817/2821 4SM -SHRA BR BKN030
     FM282100 29012KT 6SM -SHRA VCTS SCT015CB OVC025
     FM010300 VRB03KT P6SM -SHRA VCTS SCT025CB OVC040
     FM010700 VRB03KT P6SM VCSH SCT025 BKN040=

USA.gov is the U.S. government's official web portal to all federal, state and local government web resources and services.